createdAt,value
2023-03-22T04:55:49.451Z,523.00
2023-03-22T04:56:49.432Z,521.00
2023-03-22T04:57:49.413Z,520.00
2023-03-22T04:58:49.380Z,517.00
2023-03-22T04:59:49.336Z,515.00
2023-03-22T05:00:49.309Z,513.00
2023-03-22T05:01:49.361Z,513.00
2023-03-22T05:02:49.289Z,512.00
2023-03-22T05:03:49.245Z,511.00
2023-03-22T05:04:49.209Z,512.00
2023-03-22T05:05:49.198Z,514.00
2023-03-22T05:06:49.169Z,512.00
2023-03-22T05:07:49.134Z,509.00
2023-03-22T05:08:49.107Z,508.00
2023-03-22T05:09:49.068Z,510.00
2023-03-22T05:10:49.034Z,509.00
2023-03-22T05:11:49.010Z,506.00
2023-03-22T07:44:43.836Z,1068.00
2023-03-22T07:46:43.710Z,1076.00
2023-03-22T07:47:43.591Z,1122.00
2023-03-22T07:48:43.488Z,1097.00
2023-03-22T07:49:43.393Z,1115.00
2023-03-22T07:50:43.319Z,1123.00
2023-03-22T07:51:43.237Z,1123.00
2023-03-22T07:52:44.053Z,1153.00
2023-03-22T07:53:43.055Z,1215.00
2023-03-22T07:54:42.967Z,1233.00
2023-03-22T07:55:42.882Z,1241.00
2023-03-22T07:56:42.873Z,1272.00
2023-03-22T07:57:42.794Z,1265.00
2023-03-22T07:58:42.609Z,1266.00
2023-03-22T07:59:42.617Z,1153.00
2023-03-22T08:00:42.505Z,1132.00
2023-03-22T08:01:42.446Z,1141.00
2023-03-22T08:02:42.314Z,1148.00
2023-03-22T08:03:42.184Z,1146.00
2023-03-22T08:04:42.563Z,1234.00
2023-03-22T08:05:42.686Z,1211.00
2023-03-22T08:06:42.193Z,1188.00
2023-03-22T08:07:41.962Z,1090.00
2023-03-22T08:08:41.893Z,1137.00
2023-03-22T08:09:41.847Z,1151.00
2023-03-22T08:10:41.955Z,1163.00
2023-03-22T08:11:41.721Z,1169.00
2023-03-22T08:12:41.892Z,1170.00
2023-03-22T08:13:41.626Z,1176.00
2023-03-22T08:14:41.581Z,1173.00
2023-03-22T08:15:41.658Z,1172.00
2023-03-22T08:16:41.571Z,1161.00
2023-03-22T08:17:41.426Z,1154.00
2023-03-22T08:18:43.604Z,1155.00
2023-03-22T08:19:41.357Z,1143.00
2023-03-22T08:20:41.892Z,1142.00
2023-03-22T08:21:41.266Z,1142.00
2023-03-22T08:22:41.245Z,1138.00
2023-03-22T08:23:42.425Z,1117.00
2023-03-22T08:24:41.153Z,1158.00
2023-03-22T08:25:41.306Z,1148.00
2023-03-22T08:26:41.073Z,1139.00
2023-03-22T08:27:41.038Z,1129.00
2023-03-22T08:28:41.023Z,1127.00
2023-03-22T08:29:41.066Z,1123.00
2023-03-22T08:30:41.171Z,1103.00
2023-03-22T08:31:40.930Z,1154.00
2023-03-22T08:32:40.904Z,1155.00
2023-03-22T08:33:40.778Z,1165.00
2023-03-22T08:34:40.765Z,1185.00
2023-03-22T08:35:41.044Z,1351.00
2023-03-22T08:36:40.687Z,1339.00
2023-03-22T08:37:40.626Z,1318.00
2023-03-22T08:38:40.611Z,1182.00
2023-03-22T08:39:40.559Z,846.00
2023-03-22T08:40:40.574Z,729.00
2023-03-22T08:41:40.496Z,665.00
2023-03-22T08:42:40.468Z,675.00
2023-03-22T08:43:40.451Z,777.00
2023-03-22T08:44:40.587Z,867.00
2023-03-22T08:45:40.718Z,672.00
2023-03-22T08:46:40.380Z,706.00
2023-03-22T08:47:40.356Z,664.00
2023-03-22T08:48:40.369Z,733.00
2023-03-22T08:49:40.281Z,563.00
2023-03-22T08:50:40.282Z,731.00
2023-03-22T08:51:40.380Z,782.00
2023-03-22T08:52:40.316Z,763.00
2023-03-22T08:53:40.167Z,732.00
2023-03-22T08:54:40.172Z,780.00
2023-03-22T08:55:40.413Z,828.00
2023-03-22T08:56:40.090Z,829.00
2023-03-22T08:57:40.080Z,835.00
2023-03-22T08:58:40.038Z,831.00
2023-03-22T08:59:39.992Z,825.00
2023-03-22T09:00:48.466Z,807.00
2023-03-22T09:01:41.102Z,773.00
2023-03-22T09:02:39.901Z,755.00
2023-03-22T09:03:39.858Z,760.00
2023-03-22T09:04:39.902Z,761.00
2023-03-22T09:05:40.094Z,747.00
2023-03-22T09:06:39.743Z,750.00
2023-03-22T09:07:39.760Z,758.00
2023-03-22T09:08:40.619Z,756.00
2023-03-22T09:09:39.668Z,756.00
2023-03-22T09:10:39.601Z,760.00
2023-03-22T09:11:39.615Z,770.00
2023-03-22T09:12:39.514Z,741.00
2023-03-22T09:13:39.485Z,726.00
2023-03-22T09:14:39.455Z,713.00
2023-03-22T09:15:39.964Z,725.00
2023-03-22T09:16:39.508Z,608.00
2023-03-22T09:17:39.349Z,548.00
2023-03-22T09:18:39.343Z,611.00
2023-03-22T09:19:39.286Z,543.00
2023-03-22T09:20:39.643Z,542.00
2023-03-22T09:21:39.272Z,533.00
2023-03-22T09:22:39.239Z,493.00
2023-03-22T09:23:39.187Z,466.00
2023-03-22T09:24:39.161Z,481.00
2023-03-22T09:25:39.445Z,552.00
2023-03-22T09:26:39.103Z,573.00
2023-03-22T09:27:39.104Z,466.00
2023-03-22T09:28:39.089Z,498.00
2023-03-22T09:29:39.034Z,458.00
2023-03-22T09:30:39.256Z,693.00
2023-03-22T09:31:39.024Z,661.00
2023-03-22T09:32:38.984Z,622.00
2023-03-22T09:33:38.976Z,620.00
2023-03-22T09:34:38.920Z,620.00
2023-03-22T09:35:39.137Z,622.00
2023-03-22T09:36:38.843Z,628.00
2023-03-22T09:37:38.811Z,633.00
2023-03-22T09:38:38.837Z,638.00
2023-03-22T09:39:38.834Z,638.00
2023-03-22T09:40:40.023Z,640.00
2023-03-22T09:41:38.736Z,641.00
2023-03-22T09:42:38.811Z,643.00
2023-03-22T09:43:38.673Z,646.00
2023-03-22T09:44:38.711Z,647.00
2023-03-22T09:45:39.024Z,647.00
2023-03-22T09:46:38.636Z,646.00
2023-03-22T09:47:44.750Z,646.00
2023-03-22T09:48:39.477Z,643.00
2023-03-22T09:49:52.313Z,642.00
2023-03-22T09:50:39.409Z,640.00
2023-03-22T09:51:38.655Z,642.00
2023-03-22T09:52:38.498Z,640.00
2023-03-22T09:53:38.307Z,641.00
2023-03-22T09:54:38.680Z,640.00
2023-03-22T09:55:38.624Z,641.00
2023-03-22T09:56:38.345Z,641.00
2023-03-22T09:57:38.192Z,639.00
2023-03-22T09:58:38.220Z,637.00
2023-03-22T09:59:38.120Z,637.00
2023-03-22T10:00:38.244Z,637.00
2023-03-22T10:01:38.376Z,636.00
2023-03-22T10:02:38.104Z,634.00
2023-03-22T10:03:37.956Z,637.00
2023-03-22T10:04:38.038Z,635.00
2023-03-22T10:05:38.032Z,631.00
2023-03-22T10:06:37.906Z,632.00
2023-03-22T10:07:37.826Z,635.00
2023-03-22T10:08:37.780Z,634.00
2023-03-22T10:09:37.756Z,637.00
2023-03-22T10:10:40.659Z,635.00
2023-03-22T10:11:37.712Z,641.00
2023-03-22T10:12:37.661Z,642.00
2023-03-22T10:13:37.601Z,642.00
2023-03-22T10:14:37.604Z,642.00
2023-03-22T10:15:37.579Z,639.00
2023-03-22T10:16:37.566Z,639.00
2023-03-22T10:18:37.468Z,638.00
2023-03-22T10:19:37.404Z,639.00
2023-03-22T10:20:37.356Z,640.00
2023-03-22T10:21:37.346Z,641.00
2023-03-22T10:22:37.303Z,641.00
2023-03-22T10:23:37.280Z,640.00
2023-03-22T10:24:37.265Z,644.00
2023-03-22T10:25:37.267Z,642.00
2023-03-22T10:26:37.177Z,643.00
2023-03-22T10:27:37.139Z,644.00
2023-03-22T10:28:37.060Z,645.00
2023-03-22T10:29:37.087Z,646.00
2023-03-22T10:30:37.032Z,646.00
2023-03-22T10:31:37.006Z,644.00
2023-03-22T10:32:45.231Z,646.00
2023-03-22T10:34:36.856Z,646.00
2023-03-22T10:35:36.888Z,644.00
2023-03-22T10:36:36.835Z,642.00
2023-03-22T10:37:36.772Z,641.00
2023-03-22T10:38:36.805Z,640.00
2023-03-22T10:40:36.656Z,661.00
2023-03-22T10:41:36.656Z,679.00
2023-03-22T10:42:37.116Z,700.00
2023-03-22T10:43:36.536Z,716.00
2023-03-22T10:44:36.503Z,742.00
2023-03-22T10:45:36.472Z,752.00
2023-03-22T10:46:36.501Z,752.00
2023-03-22T10:47:36.410Z,751.00
2023-03-22T10:48:36.492Z,731.00
2023-03-22T10:49:36.422Z,705.00
2023-03-22T10:50:36.317Z,694.00
2023-03-22T10:51:36.281Z,687.00
2023-03-22T10:52:36.253Z,678.00
2023-03-22T10:53:36.214Z,671.00
2023-03-22T10:54:36.186Z,667.00
2023-03-22T10:55:36.149Z,663.00
2023-03-22T10:56:36.133Z,659.00
2023-03-22T10:57:36.209Z,639.00
2023-03-22T10:58:36.066Z,625.00
2023-03-22T10:59:36.030Z,620.00
2023-03-22T11:00:38.426Z,614.00
2023-03-22T11:01:36.046Z,607.00
2023-03-22T11:02:36.014Z,603.00
2023-03-22T11:03:35.858Z,606.00
2023-03-22T11:04:35.837Z,566.00
2023-03-22T11:05:35.799Z,579.00
2023-03-22T11:06:35.731Z,574.00
2023-03-22T11:07:35.695Z,572.00
2023-03-22T11:08:35.667Z,569.00
2023-03-22T11:09:35.666Z,566.00
2023-03-22T11:10:35.706Z,564.00
2023-03-22T11:11:35.569Z,554.00
2023-03-22T11:12:35.571Z,546.00
2023-03-22T11:13:35.499Z,541.00
2023-03-22T11:14:35.600Z,535.00
2023-03-22T11:15:35.403Z,516.00
2023-03-22T11:16:35.398Z,530.00
2023-03-22T11:17:35.337Z,532.00
2023-03-22T11:18:35.320Z,535.00
2023-03-22T11:19:35.279Z,543.00
2023-03-22T11:20:35.294Z,555.00
2023-03-22T11:21:35.191Z,566.00
2023-03-22T11:22:35.144Z,598.00
2023-03-22T11:23:35.106Z,602.00
2023-03-22T11:24:35.093Z,600.00
2023-03-22T11:25:35.061Z,617.00
2023-03-22T11:26:37.477Z,585.00
2023-03-22T11:27:35.965Z,604.00
2023-03-22T11:28:34.958Z,608.00
2023-03-22T11:29:34.873Z,617.00
2023-03-22T11:30:34.840Z,605.00
2023-03-22T11:31:34.832Z,611.00
2023-03-22T11:32:34.813Z,614.00
2023-03-22T11:33:34.821Z,614.00
2023-03-22T11:34:34.711Z,611.00
2023-03-22T11:35:34.696Z,609.00
2023-03-22T11:36:34.646Z,605.00
2023-03-22T11:37:34.655Z,601.00
2023-03-22T11:38:34.655Z,605.00
2023-03-22T11:39:35.149Z,619.00
2023-03-22T11:40:34.525Z,674.00
2023-03-22T11:41:34.499Z,557.00
2023-03-22T11:42:34.480Z,690.00
2023-03-22T11:43:34.456Z,754.00
2023-03-22T11:44:35.093Z,862.00
2023-03-22T11:45:34.372Z,860.00
2023-03-22T11:46:34.404Z,827.00
2023-03-22T11:47:34.338Z,814.00
2023-03-22T11:48:34.362Z,790.00
2023-03-22T11:49:34.252Z,785.00
2023-03-22T11:50:34.295Z,793.00
2023-03-22T11:51:34.196Z,811.00
2023-03-22T11:52:34.178Z,809.00
2023-03-22T11:53:34.177Z,807.00
2023-03-22T11:54:34.113Z,804.00
2023-03-22T11:55:34.083Z,801.00
2023-03-22T11:56:34.039Z,794.00
2023-03-22T11:57:34.014Z,789.00
2023-03-22T11:58:33.992Z,789.00
2023-03-22T11:59:33.920Z,781.00
2023-03-22T12:00:33.885Z,780.00
2023-03-22T12:01:33.851Z,776.00
2023-03-22T12:02:33.925Z,777.00
2023-03-22T12:03:35.050Z,774.00
2023-03-22T12:04:33.842Z,774.00
2023-03-22T12:05:33.769Z,774.00
2023-03-22T12:06:33.766Z,776.00
2023-03-22T12:07:33.687Z,776.00
2023-03-22T12:08:33.632Z,774.00
2023-03-22T12:09:33.556Z,773.00
2023-03-22T12:10:33.533Z,772.00
2023-03-22T12:11:33.511Z,772.00
2023-03-22T12:12:33.459Z,772.00
2023-03-22T12:13:33.424Z,775.00
2023-03-22T12:14:33.363Z,779.00
2023-03-22T12:15:33.362Z,777.00
2023-03-22T12:16:33.376Z,771.00
2023-03-22T12:17:33.307Z,769.00
2023-03-22T12:18:33.231Z,767.00
2023-03-22T12:19:33.232Z,765.00
2023-03-22T12:20:33.173Z,766.00
2023-03-22T12:21:33.137Z,763.00
2023-03-22T12:22:33.080Z,762.00
2023-03-22T12:23:33.039Z,759.00
2023-03-22T12:24:33.038Z,754.00
2023-03-22T12:25:32.974Z,755.00
2023-03-22T12:26:32.945Z,756.00
2023-03-22T12:27:32.868Z,757.00
2023-03-22T12:28:32.847Z,756.00
2023-03-22T12:29:32.803Z,756.00
2023-03-22T12:30:32.830Z,758.00
2023-03-22T12:31:32.762Z,756.00
2023-03-22T12:32:32.704Z,755.00
2023-03-22T12:33:32.649Z,758.00
2023-03-22T12:34:32.607Z,756.00
2023-03-22T12:35:32.579Z,755.00
2023-03-22T12:36:32.651Z,753.00
2023-03-22T12:37:32.495Z,753.00
2023-03-22T12:38:32.450Z,754.00
2023-03-22T12:39:32.406Z,756.00
2023-03-22T12:40:32.355Z,755.00
2023-03-22T12:41:32.434Z,753.00
2023-03-22T12:42:34.723Z,752.00
2023-03-22T12:43:32.401Z,754.00
2023-03-22T12:44:32.314Z,757.00
2023-03-22T12:45:32.283Z,755.00
2023-03-22T12:46:32.321Z,752.00
2023-03-22T12:47:32.286Z,752.00
2023-03-22T12:48:32.333Z,750.00
2023-03-22T12:49:32.158Z,749.00
2023-03-22T12:50:32.126Z,746.00
2023-03-22T12:51:32.098Z,744.00
2023-03-22T12:52:37.768Z,744.00
2023-03-22T12:53:33.020Z,744.00
2023-03-22T12:54:31.938Z,746.00
2023-03-22T12:55:31.894Z,749.00
2023-03-22T12:56:31.878Z,751.00
2023-03-22T12:57:31.895Z,750.00
2023-03-22T12:58:31.802Z,748.00
2023-03-22T12:59:31.784Z,747.00
2023-03-22T13:00:31.737Z,746.00
2023-03-22T13:01:31.817Z,745.00
2023-03-22T13:02:31.787Z,744.00
2023-03-22T13:03:31.797Z,742.00
2023-03-22T13:04:31.573Z,743.00
2023-03-22T13:05:31.573Z,740.00
2023-03-22T13:06:31.516Z,735.00
2023-03-22T13:07:31.489Z,732.00
2023-03-22T13:08:32.269Z,732.00
2023-03-22T13:09:31.374Z,732.00
2023-03-22T13:10:31.442Z,731.00
2023-03-22T13:11:31.307Z,732.00
2023-03-22T13:12:31.275Z,729.00
2023-03-22T13:13:31.236Z,727.00
2023-03-22T13:14:31.180Z,728.00
2023-03-22T13:15:41.207Z,730.00
2023-03-22T13:16:32.187Z,728.00
2023-03-22T13:17:31.103Z,727.00
2023-03-22T13:18:33.169Z,724.00
2023-03-22T13:19:31.353Z,724.00
2023-03-22T13:20:31.057Z,729.00
2023-03-22T13:21:31.051Z,728.00
2023-03-22T13:22:30.997Z,726.00
2023-03-22T13:23:31.028Z,723.00
2023-03-22T13:24:32.464Z,723.00
2023-03-22T13:25:30.889Z,722.00
2023-03-22T13:26:30.856Z,721.00
2023-03-22T13:27:30.818Z,720.00
2023-03-22T13:28:30.773Z,720.00
2023-03-22T13:29:30.723Z,718.00
2023-03-22T13:30:32.897Z,717.00
2023-03-22T13:31:30.808Z,715.00
2023-03-22T13:32:30.744Z,714.00
2023-03-22T13:33:30.662Z,716.00
2023-03-22T13:34:30.606Z,714.00
2023-03-22T13:35:30.614Z,713.00
2023-03-22T13:36:30.551Z,716.00
2023-03-22T13:37:30.497Z,715.00
2023-03-22T13:38:30.462Z,713.00
2023-03-22T13:39:30.428Z,713.00
2023-03-22T13:40:30.397Z,714.00
2023-03-22T13:41:30.363Z,713.00
2023-03-22T13:42:30.330Z,711.00
2023-03-22T13:43:30.297Z,711.00
2023-03-22T13:44:30.273Z,716.00
2023-03-22T13:45:30.239Z,716.00
2023-03-22T13:46:30.290Z,716.00
2023-03-22T13:47:30.204Z,713.00
2023-03-22T13:48:30.271Z,714.00
2023-03-22T13:49:30.112Z,712.00
2023-03-22T13:50:30.079Z,710.00
2023-03-22T13:51:30.081Z,709.00
2023-03-22T13:52:29.976Z,707.00
2023-03-22T13:53:29.948Z,706.00
2023-03-22T13:54:29.915Z,705.00
2023-03-22T13:55:29.881Z,703.00
2023-03-22T13:56:29.832Z,700.00
2023-03-22T13:57:29.811Z,697.00
2023-03-22T13:58:29.786Z,698.00
2023-03-22T13:59:29.830Z,700.00
2023-03-22T14:00:29.697Z,704.00
2023-03-22T14:01:29.883Z,706.00
2023-03-22T14:02:29.645Z,709.00
2023-03-22T14:03:29.877Z,709.00
2023-03-22T14:04:29.569Z,709.00
2023-03-22T14:05:29.510Z,708.00
2023-03-22T14:06:29.467Z,708.00
2023-03-22T14:07:29.470Z,708.00
2023-03-22T14:08:29.404Z,706.00
2023-03-22T14:09:29.457Z,705.00
2023-03-22T14:10:29.333Z,704.00
2023-03-22T14:11:29.318Z,704.00
2023-03-22T14:12:29.272Z,705.00
2023-03-22T14:13:29.247Z,707.00
2023-03-22T14:14:29.175Z,706.00
2023-03-22T14:15:29.210Z,708.00
2023-03-22T14:16:29.194Z,710.00
2023-03-22T14:17:29.119Z,709.00
2023-03-22T14:18:29.046Z,711.00
2023-03-22T14:19:29.335Z,708.00
2023-03-22T14:21:29.034Z,705.00
2023-03-22T14:46:18.878Z,707.00
2023-03-22T14:47:18.857Z,698.00
2023-03-22T14:48:18.819Z,697.00
2023-03-22T14:49:18.788Z,691.00
2023-03-22T14:50:18.891Z,691.00
2023-03-22T14:52:18.741Z,692.00
2023-03-22T14:53:18.698Z,690.00
2023-03-22T14:54:18.751Z,690.00
2023-03-22T14:55:18.655Z,693.00
2023-03-22T14:56:18.622Z,695.00
2023-03-22T15:02:18.481Z,694.00
2023-03-22T15:03:18.530Z,695.00
2023-03-22T15:05:18.365Z,696.00
2023-03-22T15:06:18.350Z,693.00
2023-03-22T15:07:18.347Z,689.00
2023-03-22T15:08:18.309Z,690.00
2023-03-22T15:12:18.204Z,691.00
2023-03-22T15:13:18.249Z,691.00
2023-03-22T15:15:18.161Z,692.00
2023-03-22T15:17:18.084Z,695.00
2023-03-22T15:18:18.063Z,695.00
2023-03-22T15:19:18.054Z,693.00
2023-03-22T15:23:17.961Z,685.00
2023-03-22T15:24:17.922Z,689.00
2023-03-22T15:27:17.854Z,689.00
2023-03-22T15:28:17.828Z,691.00
2023-03-22T15:29:17.829Z,694.00
2023-03-22T15:30:17.793Z,696.00
2023-03-22T15:33:17.736Z,690.00
2023-03-22T15:34:17.696Z,693.00
2023-03-22T15:37:17.643Z,692.00
2023-03-22T15:38:23.464Z,692.00
2023-03-22T15:39:18.608Z,691.00
2023-03-22T15:40:17.586Z,692.00
2023-03-22T15:41:17.580Z,693.00
2023-03-22T15:44:17.475Z,692.00
2023-03-22T15:47:17.426Z,692.00
2023-03-22T15:48:17.392Z,690.00
2023-03-22T15:52:17.299Z,695.00
2023-03-22T15:53:17.296Z,697.00
2023-03-22T15:54:17.261Z,697.00
2023-03-22T15:55:17.223Z,696.00
2023-03-22T15:56:17.258Z,696.00
2023-03-22T15:58:17.160Z,694.00
2023-03-22T15:59:17.135Z,692.00
2023-03-22T16:01:17.104Z,697.00
2023-03-22T16:04:16.998Z,704.00
2023-03-22T16:05:16.940Z,703.00
2023-03-22T16:08:16.867Z,700.00
2023-03-22T16:09:16.837Z,699.00
2023-03-22T16:10:16.819Z,698.00
2023-03-22T16:11:16.784Z,698.00
2023-03-22T16:15:16.683Z,697.00
2023-03-22T16:16:16.655Z,697.00
2023-03-22T16:18:16.588Z,695.00
2023-03-22T16:19:16.562Z,696.00
2023-03-22T16:20:16.554Z,694.00
2023-03-22T16:21:16.502Z,693.00
2023-03-22T16:22:16.499Z,694.00
2023-03-22T16:26:16.396Z,692.00
2023-03-22T16:27:16.367Z,691.00
2023-03-22T16:29:16.337Z,690.00
2023-03-22T16:30:16.305Z,687.00
2023-03-22T16:31:16.335Z,688.00
2023-03-22T16:32:16.264Z,687.00
2023-03-22T16:37:16.180Z,687.00
2023-03-22T16:39:16.140Z,686.00
2023-03-22T16:40:16.173Z,685.00
2023-03-22T16:41:16.587Z,682.00
2023-03-22T16:42:16.055Z,683.00
2023-03-22T16:46:15.986Z,679.00
2023-03-22T16:47:15.948Z,676.00
2023-03-22T16:48:15.916Z,676.00
2023-03-22T16:49:15.891Z,679.00
2023-03-22T16:50:15.882Z,679.00
2023-03-22T16:54:15.761Z,683.00
2023-03-22T16:58:15.683Z,684.00
2023-03-22T16:59:15.681Z,684.00
2023-03-22T17:00:15.670Z,684.00
2023-03-22T17:01:15.633Z,682.00
2023-03-22T17:05:15.536Z,682.00
2023-03-22T17:07:15.506Z,679.00
2023-03-22T17:08:15.481Z,679.00
2023-03-22T17:09:15.452Z,684.00
2023-03-22T17:10:15.438Z,686.00
2023-03-22T17:11:15.608Z,684.00
2023-03-22T17:16:15.330Z,680.00
2023-03-22T17:18:16.103Z,678.00
2023-03-22T17:21:15.226Z,682.00
2023-03-22T17:22:15.192Z,681.00
2023-03-22T17:23:15.159Z,684.00
2023-03-22T17:24:15.163Z,682.00
2023-03-22T17:27:15.086Z,685.00
2023-03-22T17:30:15.122Z,680.00
2023-03-22T17:32:20.243Z,680.00
2023-03-22T17:34:14.941Z,682.00
2023-03-22T17:36:14.921Z,680.00
2023-03-22T17:38:14.874Z,679.00
2023-03-22T17:39:35.373Z,681.00
2023-03-22T17:40:49.606Z,680.00
2023-03-22T17:41:14.816Z,679.00
2023-03-22T17:44:14.770Z,678.00
2023-03-22T17:48:14.676Z,679.00
2023-03-22T17:49:14.647Z,680.00
2023-03-22T17:50:14.616Z,678.00
2023-03-22T17:52:14.592Z,678.00
2023-03-22T17:57:52.572Z,673.00
2023-03-22T17:58:35.113Z,676.00
2023-03-22T17:59:15.435Z,676.00
2023-03-22T18:00:14.416Z,677.00
2023-03-22T18:01:14.421Z,674.00
2023-03-22T18:06:14.300Z,672.00
2023-03-22T18:08:27.970Z,672.00
2023-03-22T18:09:15.284Z,671.00
2023-03-22T18:12:14.176Z,668.00
2023-03-22T18:13:14.160Z,667.00
2023-03-22T18:15:14.107Z,670.00
2023-03-22T18:17:14.173Z,671.00
2023-03-22T18:18:14.051Z,670.00
2023-03-22T18:19:14.033Z,671.00
2023-03-22T18:24:13.981Z,675.00
2023-03-22T18:25:13.977Z,672.00
2023-03-22T18:26:27.489Z,671.00
2023-03-22T18:27:15.880Z,671.00
2023-03-22T18:28:13.887Z,669.00
2023-03-22T18:29:13.884Z,669.00
2023-03-22T18:30:13.889Z,668.00
2023-03-22T18:32:18.392Z,669.00
2023-03-22T18:33:14.789Z,667.00
2023-03-22T18:35:13.735Z,669.00
2023-03-22T18:37:13.752Z,668.00
2023-03-22T18:42:20.581Z,666.00
2023-03-22T18:43:14.597Z,666.00
2023-03-22T18:44:13.597Z,668.00
2023-03-22T18:49:13.500Z,663.00
2023-03-22T18:51:13.785Z,665.00
2023-03-22T18:52:40.041Z,669.00
2023-03-22T18:53:18.552Z,673.00
2023-03-22T18:54:13.397Z,670.00
2023-03-22T18:58:13.297Z,661.00
2023-03-22T19:00:13.247Z,662.00
2023-03-22T19:02:18.154Z,663.00
2023-03-22T19:03:14.159Z,661.00
2023-03-22T19:05:13.217Z,660.00
2023-03-22T19:06:13.103Z,658.00
2023-03-22T19:08:25.805Z,660.00
2023-03-22T19:09:14.004Z,658.00
2023-03-22T19:11:12.951Z,660.00
2023-03-22T19:13:13.138Z,661.00
2023-03-22T19:15:03.031Z,660.00
2023-03-22T19:17:12.802Z,654.00
2023-03-22T19:18:12.784Z,653.00
2023-03-22T19:20:13.105Z,650.00
2023-03-22T19:21:20.117Z,650.00
2023-03-22T19:22:13.668Z,650.00
2023-03-22T19:27:18.231Z,652.00
2023-03-22T19:28:13.526Z,652.00
2023-03-22T19:30:12.485Z,650.00
2023-03-22T19:32:12.461Z,648.00
2023-03-22T19:33:30.743Z,648.00
2023-03-22T19:34:13.399Z,649.00
2023-03-22T19:38:12.327Z,649.00
2023-03-22T19:42:12.242Z,649.00
2023-03-22T19:43:12.248Z,646.00
2023-03-22T19:45:12.178Z,647.00
2023-03-22T19:49:12.114Z,638.00
2023-03-22T19:50:12.081Z,638.00
2023-03-22T19:51:12.051Z,636.00
2023-03-22T19:53:44.353Z,635.00
2023-03-22T19:55:12.958Z,635.00
2023-03-22T19:58:11.888Z,633.00
2023-03-22T20:01:11.824Z,637.00
2023-03-22T20:03:11.790Z,639.00
2023-03-22T20:07:11.699Z,632.00
2023-03-22T20:08:11.691Z,635.00
2023-03-22T20:10:11.697Z,636.00
2023-03-22T20:11:21.864Z,637.00
2023-03-22T20:12:11.611Z,636.00
2023-03-22T20:18:11.486Z,629.00
2023-03-22T20:20:11.441Z,629.00
2023-03-22T20:22:11.399Z,627.00
2023-03-22T20:24:11.394Z,625.00
2023-03-22T20:25:11.352Z,628.00
2023-03-22T20:28:11.296Z,629.00
2023-03-22T20:30:11.246Z,632.00
2023-03-22T20:32:11.223Z,630.00
2023-03-22T20:33:11.179Z,629.00
2023-03-22T20:34:11.167Z,628.00
2023-03-22T20:37:11.106Z,627.00
2023-03-22T20:38:11.115Z,626.00
2023-03-22T20:40:11.073Z,627.00
2023-03-22T20:42:11.027Z,627.00
2023-03-22T20:44:11.001Z,629.00
2023-03-22T20:45:10.990Z,630.00
2023-03-22T20:46:10.990Z,624.00
2023-03-22T20:49:10.919Z,617.00
2023-03-22T20:52:10.879Z,613.00
2023-03-22T20:53:10.856Z,615.00
2023-03-22T20:54:10.857Z,616.00
2023-03-22T20:57:10.795Z,611.00
2023-03-22T20:59:10.769Z,608.00
2023-03-22T21:01:10.737Z,608.00
2023-03-22T21:02:10.701Z,608.00
2023-03-22T21:03:10.690Z,610.00
2023-03-22T21:04:10.708Z,610.00
2023-03-22T21:06:10.643Z,609.00
2023-03-22T21:11:10.549Z,617.00
2023-03-22T21:12:10.532Z,617.00
2023-03-22T21:13:10.515Z,617.00
2023-03-22T21:14:10.504Z,615.00
2023-03-22T21:15:10.502Z,616.00
2023-03-22T21:16:10.489Z,614.00
2023-03-22T21:21:10.710Z,609.00
2023-03-22T21:22:10.375Z,606.00
2023-03-22T21:23:10.348Z,606.00
2023-03-22T21:24:10.352Z,605.00
2023-03-22T21:28:10.256Z,603.00
2023-03-22T21:31:10.196Z,602.00
2023-03-22T21:32:10.168Z,605.00
2023-03-22T21:33:10.160Z,603.00
2023-03-22T21:35:10.087Z,600.00
2023-03-22T21:37:10.071Z,603.00
2023-03-22T21:41:09.974Z,601.00
2023-03-22T21:42:09.958Z,601.00
2023-03-22T21:43:09.926Z,599.00
2023-03-22T21:44:09.911Z,600.00
2023-03-22T21:49:09.816Z,596.00
2023-03-22T21:50:09.789Z,594.00
2023-03-22T21:52:09.753Z,587.00
2023-03-22T21:53:09.734Z,585.00
2023-03-22T21:55:09.672Z,583.00
2023-03-22T21:57:09.644Z,584.00
2023-03-22T21:58:09.653Z,583.00
2023-03-22T22:01:09.588Z,580.00
2023-03-22T22:03:09.542Z,584.00
2023-03-22T22:04:09.529Z,580.00
2023-03-22T22:06:09.499Z,581.00
2023-03-22T22:07:09.486Z,583.00
2023-03-22T22:11:09.383Z,578.00
2023-03-22T22:13:09.340Z,575.00
2023-03-22T22:14:09.340Z,579.00
2023-03-22T22:15:09.322Z,579.00
2023-03-22T22:16:09.289Z,578.00
2023-03-22T22:17:09.279Z,578.00
2023-03-22T22:23:09.183Z,580.00
2023-03-22T22:24:09.186Z,581.00
2023-03-22T22:26:09.158Z,578.00
2023-03-22T22:27:09.133Z,579.00
2023-03-22T22:28:09.134Z,577.00
2023-03-22T22:33:09.057Z,575.00
2023-03-22T22:34:09.383Z,575.00
2023-03-22T22:35:09.007Z,574.00
2023-03-22T22:36:08.980Z,574.00
2023-03-22T22:39:08.906Z,571.00
2023-03-22T22:43:08.856Z,566.00
2023-03-22T22:44:08.827Z,567.00
2023-03-22T22:45:08.810Z,566.00
2023-03-22T22:46:08.782Z,562.00
2023-03-22T22:48:08.753Z,562.00
2023-03-22T22:52:08.673Z,565.00
2023-03-22T22:53:08.663Z,564.00
2023-03-22T22:55:08.615Z,563.00
2023-03-22T22:56:08.598Z,564.00
2023-03-22T22:57:08.582Z,567.00
2023-03-22T23:00:08.528Z,565.00
2023-03-22T23:03:08.476Z,564.00
2023-03-22T23:04:08.452Z,564.00
2023-03-22T23:05:08.433Z,565.00
2023-03-22T23:07:08.390Z,563.00
2023-03-22T23:09:08.334Z,558.00
2023-03-22T23:11:08.279Z,559.00
2023-03-22T23:14:08.213Z,556.00
2023-03-22T23:16:08.180Z,557.00
2023-03-22T23:17:08.148Z,559.00
2023-03-22T23:18:10.221Z,559.00
2023-03-22T23:20:08.081Z,553.00
2023-03-22T23:21:08.064Z,553.00
2023-03-22T23:23:08.016Z,554.00
2023-03-22T23:27:07.921Z,552.00
2023-03-22T23:28:07.929Z,553.00
2023-03-22T23:29:07.863Z,553.00
2023-03-22T23:30:07.831Z,552.00
2023-03-22T23:31:07.824Z,552.00
2023-03-22T23:33:07.771Z,551.00
2023-03-22T23:34:07.773Z,551.00
2023-03-22T23:35:07.726Z,552.00
2023-03-22T23:37:07.690Z,547.00
2023-03-22T23:40:07.620Z,540.00
2023-03-22T23:43:07.567Z,536.00
2023-03-22T23:44:07.540Z,537.00
2023-03-22T23:45:07.506Z,539.00
2023-03-22T23:46:08.495Z,538.00
2023-03-22T23:47:07.466Z,538.00
2023-03-22T23:52:07.362Z,546.00
2023-03-22T23:53:07.346Z,547.00
2023-03-22T23:54:07.755Z,548.00
2023-03-22T23:55:07.312Z,547.00
2023-03-22T23:57:07.272Z,546.00
2023-03-22T23:58:07.247Z,547.00
